Latest Weather Observations for Marree Airport

IDS60801

Issued at 6:02 pm CST Monday 10 August 2020 (issued every 10 minutes, with the page automatically refreshed every 10 minutes)

About weather observations | Map of weather stations | Latest weather observations for SA | Other Formats
Station Details ID: 017126 Name: MARREE AERO Lat: -29.66 Lon: 138.07 Height: 50.0 m
Data from the previous 72 hours. | See also: Recent months at Marree Airport
Date/Time
CST
Temp
°C
App
Temp
°C
Dew
Point
°C
Rel
Hum
%
Delta-T
°C
Wind Press
QNH
hPa
Press
MSL
hPa
Rain since
9am
mm
Dir  Spd
km/h
Gust
km/h
Spd
kts
Gust
kts
10/06:00pm 15.7 11.0 5.9 52 4.7 NNE 20 24 11 13 1017.2 1017.2 0.0
10/05:30pm 16.4 10.4 5.1 47 5.4 NNE 26 32 14 17 1017.1 1017.1 0.0
10/05:00pm 16.8 10.7 4.8 45 5.7 NNE 26 32 14 17 1017.0 1017.0 0.0
10/04:30pm 17.1 11.4 4.8 44 5.9 NNE 24 30 13 16 1017.3 1017.3 0.0
10/04:00pm 17.2 11.5 4.9 44 5.9 NNE 24 32 13 17 1017.4 1017.4 0.0
10/03:30pm 17.5 12.3 5.4 45 5.8 NE 22 30 12 16 1018.0 1018.0 0.0
10/03:00pm 17.2 12.3 5.2 45 5.8 NE 20 30 11 16 1018.5 1018.5 0.0
10/02:30pm 17.0 12.1 5.0 45 5.7 NNE 20 30 11 16 1019.0 1019.0 0.0
10/02:00pm 16.8 12.1 5.1 46 5.6 NNE 19 28 10 15 1019.4 1019.4 0.0
10/01:30pm 16.4 11.6 4.8 46 5.5 NE 19 28 10 15 1020.0 1020.0 0.0
10/01:00pm 16.1 11.1 4.8 47 5.3 NNE 20 26 11 14 1020.3 1020.3 0.0
10/12:30pm 15.8 10.6 5.4 50 5.0 NE 22 30 12 16 1020.5 1020.5 0.0
10/12:00pm 16.0 10.9 5.9 51 4.9 NE 22 28 12 15 1021.2 1021.2 0.0
10/11:30am 14.8 9.1 4.8 51 4.7 NE 24 33 13 18 1021.8 1021.8 0.0
10/11:00am 14.5 8.9 5.3 54 4.3 NE 24 30 13 16 1022.2 1022.2 0.0
10/10:30am 13.8 7.5 5.7 58 3.8 NE 28 33 15 18 1022.2 1022.2 0.0
10/10:00am 12.6 6.8 6.2 65 3.0 ENE 26 32 14 17 1022.1 1022.1 0.0
10/09:30am 11.6 7.7 7.1 74 2.2 NE 17 28 9 15 1022.1 1022.1 0.0
10/09:00am 9.3 7.2 8.4 94 0.4 ENE 9 11 5 6 1022.0 1022.0 0.2
10/08:30am 7.2 4.3 6.6 96 0.3 SE 11 15 6 8 1021.8 1021.8 0.2
10/08:00am 5.9 2.8 5.5 97 0.2 SSE 11 13 6 7 1022.0 1022.0 0.2
10/07:30am 4.6 0.9 4.3 98 0.1 S 13 13 7 7 1021.7 1021.7 0.2
10/07:00am 4.0 0.5 3.7 98 0.1 S 11 13 6 7 1021.6 1021.6 0.2
10/06:30am 3.7 0.2 3.3 97 0.2 SSE 11 13 6 7 1021.1 1021.1 0.2
10/06:00am 3.9 -0.4 3.5 97 0.2 SSE 15 17 8 9 1020.8 1020.8 0.2
10/05:30am 4.1 0.3 3.7 97 0.2 SSE 13 15 7 8 1020.9 1020.9 0.2
10/05:00am 4.1 0.6 3.7 97 0.2 SSE 11 13 6 7 1020.8 1020.8 0.2
10/04:30am 4.7 1.0 4.3 97 0.2 SSE 13 13 7 7 1020.8 1020.8 0.2
10/04:00am 5.2 1.6 4.8 97 0.2 SSE 13 13 7 7 1021.0 1021.0 0.2
10/03:30am 5.6 2.4 5.2 97 0.2 SSE 11 13 6 7 1021.1 1021.1 0.2
10/03:00am 5.9 2.8 5.5 97 0.2 SSE 11 11 6 6 1021.1 1021.1 0.2
10/02:30am 6.3 3.7 5.9 97 0.2 SSE 9 11 5 6 1021.2 1021.2 0.2
10/02:00am 6.4 3.8 6.0 97 0.2 SSW 9 11 5 6 1021.2 1021.2 0.2
10/01:30am 6.4 4.2 6.0 97 0.2 SSW 7 9 4 5 1021.4 1021.4 0.2
10/01:00am 7.2 4.3 6.6 96 0.3 SSW 11 13 6 7 1021.4 1021.4 0.2
10/12:30am 7.3 5.8 6.7 96 0.3 SSE 4 7 2 4 1021.2 1021.2 0.2
10/12:00am 7.9 5.6 7.3 96 0.3 SSE 9 11 5 6 1021.3 1021.3 0.2
 
Date/Time
CST
Temp
°C
App
Temp
°C
Dew
Point
°C
Rel
Hum
%
Delta-T
°C
Wind Press
QNH
hPa
Press
MSL
hPa
Rain since
9am
mm
Dir  Spd
km/h
Gust
km/h
Spd
kts
Gust
kts
09/11:30pm 8.8 5.5 8.0 95 0.4 SSE 15 17 8 9 1021.2 1021.2 0.2
09/11:00pm 8.8 5.9 8.0 95 0.4 SE 13 13 7 7 1021.1 1021.1 0.2
09/10:30pm 9.4 7.0 8.5 94 0.4 SSE 11 13 6 7 1021.2 1021.2 0.2
09/10:00pm 10.9 8.2 8.8 87 1.0 S 13 15 7 8 1021.0 1021.0 0.2
09/09:30pm 11.2 8.1 8.9 86 1.1 S 15 17 8 9 1020.7 1020.7 0.2
09/09:00pm 11.8 8.6 8.6 81 1.6 S 15 17 8 9 1020.6 1020.6 0.2
09/08:30pm 12.3 9.2 8.8 79 1.7 SSW 15 17 8 9 1020.4 1020.4 0.2
09/08:00pm 13.2 10.0 8.3 72 2.4 SSW 15 15 8 8 1020.2 1020.2 0.2
09/07:30pm 14.2 10.9 7.9 66 3.1 SW 15 17 8 9 1020.0 1020.0 0.2
09/07:00pm 14.8 10.6 7.4 61 3.7 SW 19 24 10 13 1019.7 1019.7 0.2
09/06:30pm 15.1 11.3 7.4 60 3.8 SSW 17 19 9 10 1019.5 1019.5 0.2
09/06:00pm 15.4 11.6 7.4 59 4.0 SSW 17 19 9 10 1019.2 1019.2 0.2
09/05:30pm 15.7 11.4 7.0 56 4.3 SSW 19 24 10 13 1019.0 1019.0 0.2
09/05:00pm 16.0 11.9 6.2 52 4.8 SSW 17 22 9 12 1018.6 1018.6 0.2
09/04:30pm 16.0 12.3 6.4 53 4.7 SW 15 19 8 10 1018.3 1018.3 0.2
09/04:00pm 15.9 12.3 6.6 54 4.6 SW 15 20 8 11 1018.1 1018.1 0.2
09/03:30pm 16.3 12.7 6.7 53 4.7 SW 15 24 8 13 1017.8 1017.8 0.2
09/03:00pm 15.5 11.3 7.5 59 4.0 SW 19 22 10 12 1017.8 1017.8 0.2
09/02:30pm 15.3 11.1 7.6 60 3.8 SSW 19 24 10 13 1018.0 1018.0 0.2
09/02:00pm 15.6 11.1 7.1 57 4.2 SSW 20 26 11 14 1018.0 1018.0 0.2
09/01:30pm 15.5 11.0 6.8 56 4.3 SW 20 28 11 15 1018.0 1018.0 0.2
09/01:00pm 15.0 10.6 7.3 60 3.8 SSW 20 26 11 14 1018.2 1018.2 0.2
09/12:30pm 15.2 11.2 8.4 64 3.4 SSW 19 24 10 13 1018.5 1018.5 0.2
09/12:00pm 15.4 11.9 8.9 65 3.3 SSW 17 24 9 13 1018.8 1018.8 0.0
09/11:30am 14.6 11.2 9.2 70 2.8 SSW 17 22 9 12 1019.0 1019.0 0.0
09/11:00am 13.8 10.6 10.0 78 2.0 SSW 17 22 9 12 1019.0 1019.0 0.0
09/10:30am 13.3 10.1 11.2 87 1.1 SSW 19 24 10 13 1019.2 1019.2 0.0
09/10:00am 13.1 10.4 11.7 91 0.7 S 17 20 9 11 1019.1 1019.1 0.0
09/09:30am 12.5 10.6 11.9 96 0.3 SSW 13 17 7 9 1018.9 1018.9 0.0
09/09:00am 11.8 9.0 11.5 98 0.2 SW 17 19 9 10 1018.6 1018.6 0.0
09/08:30am 10.6 7.9 10.4 99 0.1 SW 15 17 8 9 1018.3 1018.3 0.0
09/08:00am 9.8 7.3 9.7 99 0.1 SW 13 15 7 8 1018.1 1018.1 0.0
09/07:30am 8.7 5.9 8.4 98 0.1 WSW 13 13 7 7 1017.8 1017.8 0.0
09/07:00am 8.7 5.9 8.4 98 0.1 WSW 13 15 7 8 1017.2 1017.2 0.0
09/06:30am 9.1 6.0 8.8 98 0.1 WSW 15 17 8 9 1017.0 1017.0 0.0
09/06:00am 9.4 5.4 8.9 97 0.2 SW 20 22 11 12 1016.5 1016.5 0.0
09/05:30am 10.2 6.0 9.7 97 0.3 WSW 22 26 12 14 1016.2 1016.2 0.0
09/05:00am 10.5 6.0 10.0 97 0.3 SW 24 30 13 16 1015.9 1015.9 0.0
09/04:30am 10.5 6.8 10.2 98 0.2 SW 20 28 11 15 1015.8 1015.8 0.0
09/04:00am 9.3 7.4 9.0 98 0.1 W 9 11 5 6 1015.8 1015.8 0.0
09/03:30am 9.7 6.4 9.4 98 0.1 W 17 19 9 10 1015.5 1015.5 0.0
09/03:00am 9.2 6.1 8.9 98 0.1 WNW 15 17 8 9 1015.4 1015.4 0.0
09/02:30am 8.8 4.9 8.5 98 0.1 WNW 19 20 10 11 1015.3 1015.3 0.0
09/02:00am 9.3 5.4 8.8 97 0.2 WNW 19 20 10 11 1015.3 1015.3 0.0
09/01:30am 9.5 6.1 9.0 97 0.2 WNW 17 19 9 10 1015.4 1015.4 0.0
09/01:00am 10.1 6.2 9.6 97 0.3 W 20 22 11 12 1015.4 1015.4 0.0
09/12:30am 10.4 6.2 9.9 97 0.3 W 22 26 12 14 1015.4 1015.4 0.0
09/12:00am 10.7 7.0 10.1 96 0.3 WNW 20 24 11 13 1015.5 1015.5 0.0
 
Date/Time
CST
Temp
°C
App
Temp
°C
Dew
Point
°C
Rel
Hum
%
Delta-T
°C
Wind Press
QNH
hPa
Press
MSL
hPa
Rain since
9am
mm
Dir  Spd
km/h
Gust
km/h
Spd
kts
Gust
kts
08/11:30pm 11.2 7.6 10.6 96 0.3 WNW 20 24 11 13 1015.6 1015.6 0.0
08/11:00pm 11.1 7.7 10.5 96 0.3 WNW 19 20 10 11 1015.7 1015.7 0.0
08/10:30pm 11.2 8.2 10.6 96 0.3 WNW 17 20 9 11 1015.9 1015.9 0.0
08/10:00pm 11.9 9.4 11.1 95 0.4 NW 15 17 8 9 1015.8 1015.8 0.0
08/09:30pm 11.8 9.7 11.0 95 0.4 NW 13 13 7 7 1015.7 1015.7 0.0
08/09:00pm 11.9 9.8 11.1 95 0.4 W 13 17 7 9 1015.6 1015.6 0.0
08/08:30pm 12.0 9.9 11.2 95 0.4 W 13 17 7 9 1015.5 1015.5 0.0
08/08:00pm 13.0 9.9 8.9 76 2.1 WSW 15 17 8 9 1015.5 1015.5 0.0
08/07:30pm 13.6 9.9 8.0 69 2.8 WSW 17 20 9 11 1015.2 1015.2 0.0
08/07:00pm 13.5 11.0 8.4 71 2.6 W 11 15 6 8 1014.9 1014.9 0.0
08/06:30pm 13.8 10.4 7.8 67 3.0 W 15 19 8 10 1014.7 1014.7 0.0
08/06:00pm 13.9 10.0 7.2 64 3.3 W 17 22 9 12 1014.5 1014.5 0.0
08/05:30pm 14.7 9.4 7.0 60 3.8 WSW 24 30 13 16 1014.3 1014.3 0.0
08/05:00pm 14.9 9.3 7.0 59 3.9 W 26 32 14 17 1014.2 1014.2 0.0
08/04:30pm 15.1 9.1 6.9 58 4.0 W 28 37 15 20 1014.1 1014.1 0.0
08/04:00pm 14.9 8.8 6.5 57 4.1 W 28 35 15 19 1014.0 1014.0 0.0
08/03:30pm 14.9 8.7 6.2 56 4.2 W 28 35 15 19 1014.1 1014.1 0.0
08/03:00pm 15.0 7.8 5.2 52 4.6 W 32 39 17 21 1014.2 1014.2 0.0
08/02:30pm 14.9 7.8 5.4 53 4.5 WNW 32 41 17 22 1014.6 1014.6 0.0
08/02:00pm 14.8 9.0 6.1 56 4.2 WNW 26 35 14 19 1014.8 1014.8 0.0
08/01:30pm 13.9 8.6 6.7 62 3.5 WNW 24 37 13 20 1015.2 1015.2 0.0
08/01:00pm 13.8 8.6 7.1 64 3.3 WNW 24 33 13 18 1015.7 1015.7 0.0
08/12:30pm 12.9 7.6 6.7 66 3.0 WNW 24 32 13 17 1016.2 1016.2 0.0
08/12:00pm 12.3 6.9 8.0 75 2.1 WNW 26 35 14 19 1016.8 1016.8 0.0
08/11:30am 11.8 6.5 8.6 81 1.6 WNW 26 33 14 18 1016.9 1016.9 0.0
08/11:00am 11.3 6.3 9.4 88 1.0 WNW 26 35 14 19 1017.1 1017.1 0.0
08/10:30am 10.7 5.7 9.6 93 0.6 WNW 26 35 14 19 1017.2 1017.2 0.0
08/10:00am 9.4 4.1 8.6 95 0.4 W 26 32 14 17 1017.2 1017.2 0.0
08/09:30am 8.7 3.4 8.3 97 0.2 W 26 33 14 18 1017.0 1017.0 0.0
08/09:00am 7.8 1.9 7.5 98 0.1 WNW 28 35 15 19 1016.8 1016.8 0.2
08/08:30am 7.0 2.1 6.7 98 0.1 W 22 28 12 15 1016.4 1016.4 0.2
08/08:00am 5.8 0.3 5.7 99 0.0 WNW 24 28 13 15 1016.2 1016.2 0.2
08/07:30am 5.1 -0.6 5.0 99 0.0 WNW 24 28 13 15 1015.9 1015.9 0.2
08/07:00am 4.7 -0.3 4.6 99 0.0 WNW 20 24 11 13 1015.7 1015.7 0.2
08/06:30am 4.6 -0.5 4.3 98 0.1 WNW 20 24 11 13 1015.4 1015.4 0.2
08/06:00am 4.5 -0.4 4.2 98 0.1 WNW 19 20 10 11 1015.1 1015.1 0.2
08/05:30am 4.7 0.2 4.4 98 0.1 WNW 17 20 9 11 1014.7 1014.7 0.2
08/05:00am 5.0 0.6 4.7 98 0.1 W 17 20 9 11 1014.6 1014.6 0.2
08/04:30am 5.4 0.7 5.1 98 0.1 W 19 20 10 11 1014.5 1014.5 0.2
08/04:00am 5.5 1.2 5.2 98 0.1 W 17 20 9 11 1014.5 1014.5 0.2
08/03:30am 5.7 1.1 5.4 98 0.1 W 19 20 10 11 1014.5 1014.5 0.2
08/03:00am 6.0 1.2 5.6 97 0.2 W 20 22 11 12 1014.7 1014.7 0.2
08/02:30am 6.5 1.4 6.1 97 0.2 WNW 22 24 12 13 1014.8 1014.8 0.2
08/02:00am 6.5 2.4 6.1 97 0.2 WNW 17 20 9 11 1015.1 1015.1 0.0
08/01:30am 7.0 2.6 6.4 96 0.3 WNW 19 22 10 12 1015.0 1015.0 0.0
08/01:00am 7.6 3.1 7.0 96 0.3 W 20 24 11 13 1014.9 1014.9 0.0
08/12:30am 8.4 3.3 7.8 96 0.3 W 24 28 13 15 1014.9 1014.9 0.0
08/12:00am 8.4 3.3 7.6 95 0.4 W 24 32 13 17 1014.8 1014.8 0.0
 
Date/Time
CST
Temp
°C
App
Temp
°C
Dew
Point
°C
Rel
Hum
%
Delta-T
°C
Wind Press
QNH
hPa
Press
MSL
hPa
Rain since
9am
mm
Dir  Spd
km/h
Gust
km/h
Spd
kts
Gust
kts
07/11:30pm 8.4 4.3 7.8 96 0.3 WNW 19 24 10 13 1015.1 1015.1 0.0
07/11:00pm 8.3 4.5 7.7 96 0.3 WNW 17 20 9 11 1015.2 1015.2 0.0
07/10:30pm 8.4 4.1 7.8 96 0.3 W 20 24 11 13 1015.1 1015.1 0.0
07/10:00pm 8.3 3.9 7.5 95 0.4 WNW 20 24 11 13 1015.0 1015.0 0.0
07/09:30pm 8.5 4.2 7.9 96 0.3 W 20 24 11 13 1015.0 1015.0 0.0
07/09:00pm 8.5 5.1 7.7 95 0.4 W 15 19 8 10 1015.0 1015.0 0.0
07/08:30pm 8.8 5.1 8.0 95 0.4 W 17 20 9 11 1014.8 1014.8 0.0
07/08:00pm 8.9 5.2 8.1 95 0.4 W 17 20 9 11 1014.8 1014.8 0.0
07/07:30pm 9.1 5.1 8.3 95 0.4 WSW 19 24 10 13 1014.5 1014.5 0.0
07/07:00pm 9.2 4.7 8.4 95 0.4 WSW 22 28 12 15 1014.2 1014.2 0.0
07/06:30pm 9.2 5.0 8.4 95 0.4 WSW 20 26 11 14 1013.9 1013.9 0.0

Other formats

Comma delimited format used in spreadsheet applications
http://www.bom.gov.au/fwo/IDS60801/IDS60801.95480.axf

JavaScript Object Notation format (JSON) in row-major order
http://www.bom.gov.au/fwo/IDS60801/IDS60801.95480.json

Data quality

Most of these data are generated automatically and are frequently updated. Quality checks on data are not normally performed. It is possible for incorrect values to appear. Refer to information at About Latest Weather Observations and please check the disclaimer before using these data.